<?xml version="1.0" encoding="UTF-8" standalone="no" ?>
<gpx xmlns="http://www.topografix.com/GPX/1/1" xmlns:xsi="http://www.w3.org/2001/XMLSchema-instance" xsi:schemaLocation="http://www.topografix.com/GPX/1/1 http://www.topografix.com/GPX/1/1/gpx.xsd" version="1.1" creator="VisuGPX - https://www.visugpx.com">
  <metadata>
    <name>NF 2026_20 km Reco 2</name>
    <desc><![CDATA[Nordique Francilienne test QR code]]></desc>
  </metadata>
  <trk>
    <name><![CDATA[NF 2026_20 km Reco 2]]></name>
    <trkseg>
      <trkpt lat="48.53866" lon="2.07945">
        <ele>82.92805</ele>
        <time>2026-01-11T12:01:58.640Z</time>
      </trkpt>
      <trkpt lat="48.53863" lon="2.07959">
        <ele>82.92805</ele>
        <time>2026-01-11T12:02:08.839Z</time>
      </trkpt>
      <trkpt lat="48.53876" lon="2.07987">
        <ele>82.92805</ele>
        <time>2026-01-11T12:02:32.190Z</time>
      </trkpt>
      <trkpt lat="48.53885" lon="2.07981">
        <ele>82.92805</ele>
        <time>2026-01-11T12:02:42.727Z</time>
      </trkpt>
      <trkpt lat="48.53893" lon="2.07975">
        <ele>82.92805</ele>
        <time>2026-01-11T12:02:52.421Z</time>
      </trkpt>
      <trkpt lat="48.53923" lon="2.07952">
        <ele>82.92805</ele>
        <time>2026-01-11T12:03:30.768Z</time>
      </trkpt>
      <trkpt lat="48.53924" lon="2.07942">
        <ele>82.967435</ele>
        <time>2026-01-11T12:03:38.548Z</time>
      </trkpt>
      <trkpt lat="48.53931" lon="2.07939">
        <ele>83.130405</ele>
        <time>2026-01-11T12:03:46.263Z</time>
      </trkpt>
      <trkpt lat="48.53934" lon="2.07943">
        <ele>83.231159</ele>
        <time>2026-01-11T12:03:50.948Z</time>
      </trkpt>
      <trkpt lat="48.53993" lon="2.07887">
        <ele>84.903485</ele>
        <time>2026-01-11T12:05:09.207Z</time>
      </trkpt>
      <trkpt lat="48.54" lon="2.07883">
        <ele>85.082343</ele>
        <time>2026-01-11T12:05:17.369Z</time>
      </trkpt>
      <trkpt lat="48.54007" lon="2.07879">
        <ele>85.271329</ele>
        <time>2026-01-11T12:05:26.162Z</time>
      </trkpt>
      <trkpt lat="48.54033" lon="2.08037">
        <ele>87.276131</ele>
        <time>2026-01-11T12:07:19.583Z</time>
      </trkpt>
      <trkpt lat="48.54104" lon="2.08575">
        <ele>87.093027</ele>
        <time>2026-01-11T12:13:24.605Z</time>
      </trkpt>
      <trkpt lat="48.54184" lon="2.09141">
        <ele>88.15242</ele>
        <time>2026-01-11T12:19:52.708Z</time>
      </trkpt>
      <trkpt lat="48.54197" lon="2.09232">
        <ele>88.358514</ele>
        <time>2026-01-11T12:20:55.265Z</time>
      </trkpt>
      <trkpt lat="48.54199" lon="2.09246">
        <ele>88.390011</ele>
        <time>2026-01-11T12:21:04.756Z</time>
      </trkpt>
      <trkpt lat="48.54212" lon="2.09365">
        <ele>89.744809</ele>
        <time>2026-01-11T12:22:27.748Z</time>
      </trkpt>
      <trkpt lat="48.54254" lon="2.0941">
        <ele>92.281577</ele>
        <time>2026-01-11T12:23:24.313Z</time>
      </trkpt>
      <trkpt lat="48.54262" lon="2.09419">
        <ele>92.808815</ele>
        <time>2026-01-11T12:23:36.521Z</time>
      </trkpt>
      <trkpt lat="48.54296" lon="2.0947">
        <ele>95.195084</ele>
        <time>2026-01-11T12:24:34.015Z</time>
      </trkpt>
      <trkpt lat="48.54307" lon="2.09482">
        <ele>95.857598</ele>
        <time>2026-01-11T12:24:50.687Z</time>
      </trkpt>
      <trkpt lat="48.54335" lon="2.09497">
        <ele>97.332404</ele>
        <time>2026-01-11T12:25:28.243Z</time>
      </trkpt>
      <trkpt lat="48.54341" lon="2.09506">
        <ele>97.950506</ele>
        <time>2026-01-11T12:25:39.203Z</time>
      </trkpt>
      <trkpt lat="48.5435" lon="2.09552">
        <ele>101.124923</ele>
        <time>2026-01-11T12:26:21.829Z</time>
      </trkpt>
      <trkpt lat="48.54358" lon="2.09566">
        <ele>102.314637</ele>
        <time>2026-01-11T12:26:38.134Z</time>
      </trkpt>
      <trkpt lat="48.54373" lon="2.09568">
        <ele>103.713421</ele>
        <time>2026-01-11T12:26:57.482Z</time>
      </trkpt>
      <trkpt lat="48.544" lon="2.09552">
        <ele>106.559995</ele>
        <time>2026-01-11T12:27:37.872Z</time>
      </trkpt>
      <trkpt lat="48.54431" lon="2.09523">
        <ele>110.15571</ele>
        <time>2026-01-11T12:28:29.458Z</time>
      </trkpt>
      <trkpt lat="48.54449" lon="2.09521">
        <ele>111.966983</ele>
        <time>2026-01-11T12:28:54.548Z</time>
      </trkpt>
      <trkpt lat="48.54498" lon="2.09556">
        <ele>116.003229</ele>
        <time>2026-01-11T12:30:05.810Z</time>
      </trkpt>
      <trkpt lat="48.54501" lon="2.0955">
        <ele>116.215868</ele>
        <time>2026-01-11T12:30:13.099Z</time>
      </trkpt>
      <trkpt lat="48.54593" lon="2.09512">
        <ele>119.848659</ele>
        <time>2026-01-11T12:32:03.793Z</time>
      </trkpt>
      <trkpt lat="48.54651" lon="2.09494">
        <ele>122.028193</ele>
        <time>2026-01-11T12:33:03.361Z</time>
      </trkpt>
      <trkpt lat="48.54807" lon="2.09453">
        <ele>118.758287</ele>
        <time>2026-01-11T12:35:48.705Z</time>
      </trkpt>
      <trkpt lat="48.54879" lon="2.0943">
        <ele>116.771792</ele>
        <time>2026-01-11T12:37:06.636Z</time>
      </trkpt>
      <trkpt lat="48.54877" lon="2.09444">
        <ele>116.493047</ele>
        <time>2026-01-11T12:37:16.668Z</time>
      </trkpt>
      <trkpt lat="48.54893" lon="2.09638">
        <ele>112.592022</ele>
        <time>2026-01-11T12:39:33.910Z</time>
      </trkpt>
      <trkpt lat="48.54898" lon="2.09658">
        <ele>112.095148</ele>
        <time>2026-01-11T12:39:48.771Z</time>
      </trkpt>
      <trkpt lat="48.54894" lon="2.09672">
        <ele>111.738117</ele>
        <time>2026-01-11T12:39:59.442Z</time>
      </trkpt>
      <trkpt lat="48.5486" lon="2.09753">
        <ele>109.471815</ele>
        <time>2026-01-11T12:41:07.766Z</time>
      </trkpt>
      <trkpt lat="48.54833" lon="2.09863">
        <ele>106.717822</ele>
        <time>2026-01-11T12:42:31.577Z</time>
      </trkpt>
      <trkpt lat="48.54822" lon="2.09939">
        <ele>104.982782</ele>
        <time>2026-01-11T12:43:27.561Z</time>
      </trkpt>
      <trkpt lat="48.54807" lon="2.09986">
        <ele>103.835719</ele>
        <time>2026-01-11T12:44:04.720Z</time>
      </trkpt>
      <trkpt lat="48.54807" lon="2.1015">
        <ele>100.392586</ele>
        <time>2026-01-11T12:45:59.652Z</time>
      </trkpt>
      <trkpt lat="48.54807" lon="2.1018">
        <ele>100.046686</ele>
        <time>2026-01-11T12:46:20.901Z</time>
      </trkpt>
      <trkpt lat="48.54802" lon="2.10313">
        <ele>98.549134</ele>
        <time>2026-01-11T12:47:52.815Z</time>
      </trkpt>
      <trkpt lat="48.54777" lon="2.10445">
        <ele>98.677173</ele>
        <time>2026-01-11T12:49:25.574Z</time>
      </trkpt>
      <trkpt lat="48.54763" lon="2.10498">
        <ele>100.0956</ele>
        <time>2026-01-11T12:50:04.974Z</time>
      </trkpt>
      <trkpt lat="48.54791" lon="2.10545">
        <ele>101.67159</ele>
        <time>2026-01-11T12:50:52.340Z</time>
      </trkpt>
      <trkpt lat="48.54837" lon="2.10604">
        <ele>103.918554</ele>
        <time>2026-01-11T12:52:07.099Z</time>
      </trkpt>
      <trkpt lat="48.54841" lon="2.1061">
        <ele>104.133074</ele>
        <time>2026-01-11T12:52:14.352Z</time>
      </trkpt>
      <trkpt lat="48.54883" lon="2.10636">
        <ele>107.45323</ele>
        <time>2026-01-11T12:53:12.835Z</time>
      </trkpt>
      <trkpt lat="48.5489" lon="2.10659">
        <ele>108.712841</ele>
        <time>2026-01-11T12:53:33.908Z</time>
      </trkpt>
      <trkpt lat="48.54909" lon="2.10679">
        <ele>110.459701</ele>
        <time>2026-01-11T12:54:02.961Z</time>
      </trkpt>
      <trkpt lat="48.5492" lon="2.10701">
        <ele>111.825697</ele>
        <time>2026-01-11T12:54:25.466Z</time>
      </trkpt>
      <trkpt lat="48.54917" lon="2.1071">
        <ele>112.298289</ele>
        <time>2026-01-11T12:54:33.248Z</time>
      </trkpt>
      <trkpt lat="48.54925" lon="2.10726">
        <ele>113.322536</ele>
        <time>2026-01-11T12:54:50.222Z</time>
      </trkpt>
      <trkpt lat="48.54928" lon="2.1074">
        <ele>114.05134</ele>
        <time>2026-01-11T12:55:02.239Z</time>
      </trkpt>
      <trkpt lat="48.5494" lon="2.10755">
        <ele>115.213742</ele>
        <time>2026-01-11T12:55:21.364Z</time>
      </trkpt>
      <trkpt lat="48.54946" lon="2.10791">
        <ele>117.076681</ele>
        <time>2026-01-11T12:55:51.783Z</time>
      </trkpt>
      <trkpt lat="48.54945" lon="2.10825">
        <ele>118.906722</ele>
        <time>2026-01-11T12:56:19.527Z</time>
      </trkpt>
      <trkpt lat="48.54951" lon="2.10848">
        <ele>120.345424</ele>
        <time>2026-01-11T12:56:40.026Z</time>
      </trkpt>
      <trkpt lat="48.54955" lon="2.10842">
        <ele>120.852284</ele>
        <time>2026-01-11T12:56:47.295Z</time>
      </trkpt>
      <trkpt lat="48.55013" lon="2.10795">
        <ele>126.582797</ele>
        <time>2026-01-11T12:58:13.726Z</time>
      </trkpt>
      <trkpt lat="48.55038" lon="2.10786">
        <ele>128.825613</ele>
        <time>2026-01-11T12:58:48.798Z</time>
      </trkpt>
      <trkpt lat="48.55048" lon="2.10785">
        <ele>129.669602</ele>
        <time>2026-01-11T12:59:02.059Z</time>
      </trkpt>
      <trkpt lat="48.55076" lon="2.10785">
        <ele>132.097089</ele>
        <time>2026-01-11T12:59:39.666Z</time>
      </trkpt>
      <trkpt lat="48.55097" lon="2.10776">
        <ele>133.745328</ele>
        <time>2026-01-11T13:00:07.502Z</time>
      </trkpt>
      <trkpt lat="48.55107" lon="2.10753">
        <ele>134.442782</ele>
        <time>2026-01-11T13:00:30.829Z</time>
      </trkpt>
      <trkpt lat="48.55114" lon="2.10723">
        <ele>135.234593</ele>
        <time>2026-01-11T13:00:56.286Z</time>
      </trkpt>
      <trkpt lat="48.55108" lon="2.10695">
        <ele>135.97193</ele>
        <time>2026-01-11T13:01:18.634Z</time>
      </trkpt>
      <trkpt lat="48.55088" lon="2.10651">
        <ele>137.293941</ele>
        <time>2026-01-11T13:01:56.614Z</time>
      </trkpt>
      <trkpt lat="48.5506" lon="2.10607">
        <ele>138.82156</ele>
        <time>2026-01-11T13:02:38.690Z</time>
      </trkpt>
      <trkpt lat="48.55037" lon="2.1058">
        <ele>139.898922</ele>
        <time>2026-01-11T13:03:08.488Z</time>
      </trkpt>
      <trkpt lat="48.55029" lon="2.10559">
        <ele>140.53898</ele>
        <time>2026-01-11T13:03:25.253Z</time>
      </trkpt>
      <trkpt lat="48.55032" lon="2.10525">
        <ele>141.650208</ele>
        <time>2026-01-11T13:03:50.031Z</time>
      </trkpt>
      <trkpt lat="48.55034" lon="2.10503">
        <ele>142.329646</ele>
        <time>2026-01-11T13:04:05.513Z</time>
      </trkpt>
      <trkpt lat="48.5506" lon="2.10429">
        <ele>145.008632</ele>
        <time>2026-01-11T13:05:11.011Z</time>
      </trkpt>
      <trkpt lat="48.55164" lon="2.103">
        <ele>150.078254</ele>
        <time>2026-01-11T13:07:56.660Z</time>
      </trkpt>
      <trkpt lat="48.55196" lon="2.10284">
        <ele>150.780923</ele>
        <time>2026-01-11T13:08:33.795Z</time>
      </trkpt>
      <trkpt lat="48.55217" lon="2.10282">
        <ele>151.240088</ele>
        <time>2026-01-11T13:08:57.263Z</time>
      </trkpt>
      <trkpt lat="48.55239" lon="2.103">
        <ele>151.762395</ele>
        <time>2026-01-11T13:09:22.818Z</time>
      </trkpt>
      <trkpt lat="48.55325" lon="2.10287">
        <ele>150.713589</ele>
        <time>2026-01-11T13:10:53.100Z</time>
      </trkpt>
      <trkpt lat="48.5534" lon="2.10356">
        <ele>148.108402</ele>
        <time>2026-01-11T13:11:46.253Z</time>
      </trkpt>
      <trkpt lat="48.55338" lon="2.10442">
        <ele>145.014608</ele>
        <time>2026-01-11T13:12:51.516Z</time>
      </trkpt>
      <trkpt lat="48.55358" lon="2.10494">
        <ele>142.826688</ele>
        <time>2026-01-11T13:13:37.779Z</time>
      </trkpt>
      <trkpt lat="48.55365" lon="2.10539">
        <ele>140.870029</ele>
        <time>2026-01-11T13:14:13.034Z</time>
      </trkpt>
      <trkpt lat="48.55369" lon="2.10548">
        <ele>140.421612</ele>
        <time>2026-01-11T13:14:21.098Z</time>
      </trkpt>
      <trkpt lat="48.55411" lon="2.10592">
        <ele>137.188505</ele>
        <time>2026-01-11T13:15:18.422Z</time>
      </trkpt>
      <trkpt lat="48.55417" lon="2.10663">
        <ele>134.146041</ele>
        <time>2026-01-11T13:16:11.449Z</time>
      </trkpt>
      <trkpt lat="48.55427" lon="2.10654">
        <ele>133.395945</ele>
        <time>2026-01-11T13:16:24.478Z</time>
      </trkpt>
      <trkpt lat="48.55432" lon="2.10653">
        <ele>133.04249</ele>
        <time>2026-01-11T13:16:30.528Z</time>
      </trkpt>
      <trkpt lat="48.55439" lon="2.10657">
        <ele>132.562051</ele>
        <time>2026-01-11T13:16:38.977Z</time>
      </trkpt>
      <trkpt lat="48.55446" lon="2.10671">
        <ele>131.848344</ele>
        <time>2026-01-11T13:16:51.299Z</time>
      </trkpt>
      <trkpt lat="48.55447" lon="2.10676">
        <ele>131.624825</ele>
        <time>2026-01-11T13:16:55.206Z</time>
      </trkpt>
      <trkpt lat="48.55469" lon="2.10753">
        <ele>128.172288</ele>
        <time>2026-01-11T13:17:57.702Z</time>
      </trkpt>
      <trkpt lat="48.55486" lon="2.10816">
        <ele>125.391337</ele>
        <time>2026-01-11T13:18:48.695Z</time>
      </trkpt>
      <trkpt lat="48.55517" lon="2.10928">
        <ele>120.454903</ele>
        <time>2026-01-11T13:20:19.945Z</time>
      </trkpt>
      <trkpt lat="48.55567" lon="2.11085">
        <ele>115.874533</ele>
        <time>2026-01-11T13:22:27.439Z</time>
      </trkpt>
      <trkpt lat="48.55583" lon="2.11145">
        <ele>114.168266</ele>
        <time>2026-01-11T13:23:13.554Z</time>
      </trkpt>
      <trkpt lat="48.55587" lon="2.11175">
        <ele>113.352659</ele>
        <time>2026-01-11T13:23:34.583Z</time>
      </trkpt>
      <trkpt lat="48.55586" lon="2.112">
        <ele>114.229363</ele>
        <time>2026-01-11T13:23:51.017Z</time>
      </trkpt>
      <trkpt lat="48.55583" lon="2.11221">
        <ele>115.103492</ele>
        <time>2026-01-11T13:24:06.151Z</time>
      </trkpt>
      <trkpt lat="48.55568" lon="2.11272">
        <ele>117.352366</ele>
        <time>2026-01-11T13:24:47.778Z</time>
      </trkpt>
      <trkpt lat="48.5564" lon="2.11296">
        <ele>121.8488</ele>
        <time>2026-01-11T13:26:22.639Z</time>
      </trkpt>
      <trkpt lat="48.55718" lon="2.11286">
        <ele>127.000531</ele>
        <time>2026-01-11T13:28:10.179Z</time>
      </trkpt>
      <trkpt lat="48.55746" lon="2.11283">
        <ele>128.940639</ele>
        <time>2026-01-11T13:28:45.971Z</time>
      </trkpt>
      <trkpt lat="48.55736" lon="2.11172">
        <ele>134.142119</ele>
        <time>2026-01-11T13:30:15.536Z</time>
      </trkpt>
      <trkpt lat="48.55738" lon="2.11122">
        <ele>136.489153</ele>
        <time>2026-01-11T13:30:53.515Z</time>
      </trkpt>
      <trkpt lat="48.55734" lon="2.11066">
        <ele>138.166863</ele>
        <time>2026-01-11T13:31:35.696Z</time>
      </trkpt>
      <trkpt lat="48.55722" lon="2.11007">
        <ele>139.802618</ele>
        <time>2026-01-11T13:32:23.144Z</time>
      </trkpt>
      <trkpt lat="48.55726" lon="2.10973">
        <ele>140.724001</ele>
        <time>2026-01-11T13:32:50.109Z</time>
      </trkpt>
      <trkpt lat="48.55748" lon="2.10903">
        <ele>142.790013</ele>
        <time>2026-01-11T13:33:50.414Z</time>
      </trkpt>
      <trkpt lat="48.55554" lon="2.104">
        <ele>151.058927</ele>
        <time>2026-01-11T13:40:41.380Z</time>
      </trkpt>
      <trkpt lat="48.55506" lon="2.10232">
        <ele>153.745782</ele>
        <time>2026-01-11T13:42:53.538Z</time>
      </trkpt>
      <trkpt lat="48.55488" lon="2.10139">
        <ele>155.169432</ele>
        <time>2026-01-11T13:44:02.556Z</time>
      </trkpt>
      <trkpt lat="48.55472" lon="2.10049">
        <ele>155.701998</ele>
        <time>2026-01-11T13:45:07.696Z</time>
      </trkpt>
      <trkpt lat="48.55442" lon="2.09965">
        <ele>156.214329</ele>
        <time>2026-01-11T13:46:12.094Z</time>
      </trkpt>
      <trkpt lat="48.55413" lon="2.09825">
        <ele>156.621308</ele>
        <time>2026-01-11T13:47:49.793Z</time>
      </trkpt>
      <trkpt lat="48.55401" lon="2.09697">
        <ele>156.494015</ele>
        <time>2026-01-11T13:49:15.299Z</time>
      </trkpt>
      <trkpt lat="48.55342" lon="2.09532">
        <ele>155.708725</ele>
        <time>2026-01-11T13:51:21.311Z</time>
      </trkpt>
      <trkpt lat="48.55292" lon="2.09386">
        <ele>154.624841</ele>
        <time>2026-01-11T13:53:12.563Z</time>
      </trkpt>
      <trkpt lat="48.5528" lon="2.09359">
        <ele>154.311795</ele>
        <time>2026-01-11T13:53:34.562Z</time>
      </trkpt>
      <trkpt lat="48.55249" lon="2.09286">
        <ele>153.445884</ele>
        <time>2026-01-11T13:54:34.188Z</time>
      </trkpt>
      <trkpt lat="48.55213" lon="2.09198">
        <ele>152.408462</ele>
        <time>2026-01-11T13:55:45.385Z</time>
      </trkpt>
      <trkpt lat="48.55205" lon="2.09156">
        <ele>151.977289</ele>
        <time>2026-01-11T13:56:14.970Z</time>
      </trkpt>
      <trkpt lat="48.55192" lon="2.08952">
        <ele>150.700232</ele>
        <time>2026-01-11T13:58:34.096Z</time>
      </trkpt>
      <trkpt lat="48.55193" lon="2.08837">
        <ele>150.225802</ele>
        <time>2026-01-11T13:59:50.456Z</time>
      </trkpt>
      <trkpt lat="48.55196" lon="2.08807">
        <ele>150.207198</ele>
        <time>2026-01-11T14:00:11.027Z</time>
      </trkpt>
      <trkpt lat="48.55203" lon="2.08776">
        <ele>150.187807</ele>
        <time>2026-01-11T14:00:32.535Z</time>
      </trkpt>
      <trkpt lat="48.55205" lon="2.08752">
        <ele>150.17347</ele>
        <time>2026-01-11T14:00:48.430Z</time>
      </trkpt>
      <trkpt lat="48.55205" lon="2.08728">
        <ele>150.158773</ele>
        <time>2026-01-11T14:01:04.759Z</time>
      </trkpt>
      <trkpt lat="48.552" lon="2.08695">
        <ele>150.138661</ele>
        <time>2026-01-11T14:01:27.056Z</time>
      </trkpt>
      <trkpt lat="48.55194" lon="2.08455">
        <ele>149.772849</ele>
        <time>2026-01-11T14:04:06.846Z</time>
      </trkpt>
      <trkpt lat="48.55187" lon="2.08198">
        <ele>148.980621</ele>
        <time>2026-01-11T14:06:59.047Z</time>
      </trkpt>
      <trkpt lat="48.55185" lon="2.08118">
        <ele>148.665024</ele>
        <time>2026-01-11T14:07:52.828Z</time>
      </trkpt>
      <trkpt lat="48.55165" lon="2.08119">
        <ele>148.550992</ele>
        <time>2026-01-11T14:08:12.252Z</time>
      </trkpt>
      <trkpt lat="48.54992" lon="2.08124">
        <ele>147.995239</ele>
        <time>2026-01-11T14:11:07.856Z</time>
      </trkpt>
      <trkpt lat="48.54808" lon="2.0813">
        <ele>149.810456</ele>
        <time>2026-01-11T14:14:19.260Z</time>
      </trkpt>
      <trkpt lat="48.54485" lon="2.08134">
        <ele>156.045632</ele>
        <time>2026-01-11T14:20:09.604Z</time>
      </trkpt>
      <trkpt lat="48.54485" lon="2.08134">
        <ele>156.049074</ele>
        <time>2026-01-11T14:20:09.849Z</time>
      </trkpt>
      <trkpt lat="48.54524" lon="2.08293">
        <ele>156.391241</ele>
        <time>2026-01-11T14:22:02.442Z</time>
      </trkpt>
      <trkpt lat="48.54533" lon="2.0834">
        <ele>156.113982</ele>
        <time>2026-01-11T14:22:36.117Z</time>
      </trkpt>
      <trkpt lat="48.54552" lon="2.08392">
        <ele>155.783349</ele>
        <time>2026-01-11T14:23:16.282Z</time>
      </trkpt>
      <trkpt lat="48.5458" lon="2.08446">
        <ele>155.397944</ele>
        <time>2026-01-11T14:24:03.110Z</time>
      </trkpt>
      <trkpt lat="48.54606" lon="2.08506">
        <ele>154.749949</ele>
        <time>2026-01-11T14:24:51.597Z</time>
      </trkpt>
      <trkpt lat="48.5463" lon="2.08592">
        <ele>153.873636</ele>
        <time>2026-01-11T14:25:54.615Z</time>
      </trkpt>
      <trkpt lat="48.54646" lon="2.08669">
        <ele>153.113309</ele>
        <time>2026-01-11T14:26:49.688Z</time>
      </trkpt>
      <trkpt lat="48.54653" lon="2.08735">
        <ele>152.236706</ele>
        <time>2026-01-11T14:27:35.810Z</time>
      </trkpt>
      <trkpt lat="48.54645" lon="2.08796">
        <ele>151.20005</ele>
        <time>2026-01-11T14:28:18.995Z</time>
      </trkpt>
      <trkpt lat="48.54628" lon="2.0887">
        <ele>149.885818</ele>
        <time>2026-01-11T14:29:14.233Z</time>
      </trkpt>
      <trkpt lat="48.54619" lon="2.08899">
        <ele>149.36194</ele>
        <time>2026-01-11T14:29:36.272Z</time>
      </trkpt>
      <trkpt lat="48.54586" lon="2.09002">
        <ele>147.101035</ele>
        <time>2026-01-11T14:30:56.932Z</time>
      </trkpt>
      <trkpt lat="48.54542" lon="2.09157">
        <ele>143.178449</ele>
        <time>2026-01-11T14:32:54.841Z</time>
      </trkpt>
      <trkpt lat="48.54527" lon="2.09182">
        <ele>142.408462</ele>
        <time>2026-01-11T14:33:19.071Z</time>
      </trkpt>
      <trkpt lat="48.5451" lon="2.09204">
        <ele>141.545988</ele>
        <time>2026-01-11T14:33:44.798Z</time>
      </trkpt>
      <trkpt lat="48.54498" lon="2.09228">
        <ele>140.708365</ele>
        <time>2026-01-11T14:34:07.410Z</time>
      </trkpt>
      <trkpt lat="48.54486" lon="2.09282">
        <ele>139.124348</ele>
        <time>2026-01-11T14:34:49.774Z</time>
      </trkpt>
      <trkpt lat="48.54482" lon="2.09325">
        <ele>137.917865</ele>
        <time>2026-01-11T14:35:21.755Z</time>
      </trkpt>
      <trkpt lat="48.54459" lon="2.09319">
        <ele>136.965414</ele>
        <time>2026-01-11T14:35:46.712Z</time>
      </trkpt>
      <trkpt lat="48.54418" lon="2.09205">
        <ele>134.651444</ele>
        <time>2026-01-11T14:37:16.984Z</time>
      </trkpt>
      <trkpt lat="48.54389" lon="2.09155">
        <ele>135.158122</ele>
        <time>2026-01-11T14:38:04.194Z</time>
      </trkpt>
      <trkpt lat="48.54388" lon="2.0911">
        <ele>135.494443</ele>
        <time>2026-01-11T14:38:36.403Z</time>
      </trkpt>
      <trkpt lat="48.54378" lon="2.09082">
        <ele>135.732547</ele>
        <time>2026-01-11T14:38:59.119Z</time>
      </trkpt>
      <trkpt lat="48.54378" lon="2.09039">
        <ele>136.055091</ele>
        <time>2026-01-11T14:39:29.758Z</time>
      </trkpt>
      <trkpt lat="48.54381" lon="2.09014">
        <ele>136.242125</ele>
        <time>2026-01-11T14:39:47.552Z</time>
      </trkpt>
      <trkpt lat="48.5438" lon="2.08962">
        <ele>136.864483</ele>
        <time>2026-01-11T14:40:24.894Z</time>
      </trkpt>
      <trkpt lat="48.5438" lon="2.08959">
        <ele>136.910677</ele>
        <time>2026-01-11T14:40:27.063Z</time>
      </trkpt>
      <trkpt lat="48.54383" lon="2.08902">
        <ele>137.784276</ele>
        <time>2026-01-11T14:41:07.749Z</time>
      </trkpt>
      <trkpt lat="48.5437" lon="2.08886">
        <ele>138.16948</ele>
        <time>2026-01-11T14:41:25.813Z</time>
      </trkpt>
      <trkpt lat="48.54355" lon="2.0885">
        <ele>138.815888</ele>
        <time>2026-01-11T14:41:56.086Z</time>
      </trkpt>
      <trkpt lat="48.54347" lon="2.08811">
        <ele>139.452428</ele>
        <time>2026-01-11T14:42:25.918Z</time>
      </trkpt>
      <trkpt lat="48.54341" lon="2.08744">
        <ele>140.495861</ele>
        <time>2026-01-11T14:43:14.967Z</time>
      </trkpt>
      <trkpt lat="48.54341" lon="2.08691">
        <ele>140.91314</ele>
        <time>2026-01-11T14:43:52.890Z</time>
      </trkpt>
      <trkpt lat="48.54341" lon="2.08682">
        <ele>140.971902</ele>
        <time>2026-01-11T14:43:58.934Z</time>
      </trkpt>
      <trkpt lat="48.54343" lon="2.0865">
        <ele>141.190034</ele>
        <time>2026-01-11T14:44:21.241Z</time>
      </trkpt>
      <trkpt lat="48.54349" lon="2.08628">
        <ele>141.355531</ele>
        <time>2026-01-11T14:44:38.005Z</time>
      </trkpt>
      <trkpt lat="48.54349" lon="2.08594">
        <ele>141.585796</ele>
        <time>2026-01-11T14:45:00.887Z</time>
      </trkpt>
      <trkpt lat="48.54354" lon="2.0857">
        <ele>141.759015</ele>
        <time>2026-01-11T14:45:18.027Z</time>
      </trkpt>
      <trkpt lat="48.54341" lon="2.08516">
        <ele>142.155059</ele>
        <time>2026-01-11T14:45:57.003Z</time>
      </trkpt>
      <trkpt lat="48.54323" lon="2.0849">
        <ele>142.407898</ele>
        <time>2026-01-11T14:46:21.866Z</time>
      </trkpt>
      <trkpt lat="48.54301" lon="2.08471">
        <ele>142.223111</ele>
        <time>2026-01-11T14:46:47.615Z</time>
      </trkpt>
      <trkpt lat="48.54292" lon="2.08445">
        <ele>142.01747</ele>
        <time>2026-01-11T14:47:07.065Z</time>
      </trkpt>
      <trkpt lat="48.54291" lon="2.08413">
        <ele>141.793424</ele>
        <time>2026-01-11T14:47:28.435Z</time>
      </trkpt>
      <trkpt lat="48.54305" lon="2.08389">
        <ele>141.570205</ele>
        <time>2026-01-11T14:47:50.076Z</time>
      </trkpt>
      <trkpt lat="48.54308" lon="2.0837">
        <ele>141.432959</ele>
        <time>2026-01-11T14:48:03.435Z</time>
      </trkpt>
      <trkpt lat="48.54318" lon="2.08355">
        <ele>141.284018</ele>
        <time>2026-01-11T14:48:17.989Z</time>
      </trkpt>
      <trkpt lat="48.54322" lon="2.0834">
        <ele>141.172113</ele>
        <time>2026-01-11T14:48:28.999Z</time>
      </trkpt>
      <trkpt lat="48.54301" lon="2.08295">
        <ele>140.786108</ele>
        <time>2026-01-11T14:49:06.977Z</time>
      </trkpt>
      <trkpt lat="48.54296" lon="2.08275">
        <ele>140.635227</ele>
        <time>2026-01-11T14:49:21.704Z</time>
      </trkpt>
      <trkpt lat="48.54257" lon="2.08274">
        <ele>141.016</ele>
        <time>2026-01-11T14:50:02.101Z</time>
      </trkpt>
      <trkpt lat="48.54248" lon="2.08274">
        <ele>141.167334</ele>
        <time>2026-01-11T14:50:11.961Z</time>
      </trkpt>
      <trkpt lat="48.54255" lon="2.08208">
        <ele>141.86829</ele>
        <time>2026-01-11T14:50:56.629Z</time>
      </trkpt>
      <trkpt lat="48.54255" lon="2.0817">
        <ele>142.261975</ele>
        <time>2026-01-11T14:51:22.893Z</time>
      </trkpt>
      <trkpt lat="48.54265" lon="2.08158">
        <ele>142.473308</ele>
        <time>2026-01-11T14:51:37.581Z</time>
      </trkpt>
      <trkpt lat="48.54274" lon="2.08161">
        <ele>142.623655</ele>
        <time>2026-01-11T14:51:48.111Z</time>
      </trkpt>
      <trkpt lat="48.54291" lon="2.08196">
        <ele>143.076358</ele>
        <time>2026-01-11T14:52:21.611Z</time>
      </trkpt>
      <trkpt lat="48.54305" lon="2.08181">
        <ele>143.341797</ele>
        <time>2026-01-11T14:52:42.093Z</time>
      </trkpt>
      <trkpt lat="48.54316" lon="2.08159">
        <ele>143.161758</ele>
        <time>2026-01-11T14:53:05.017Z</time>
      </trkpt>
      <trkpt lat="48.54322" lon="2.08137">
        <ele>142.953239</ele>
        <time>2026-01-11T14:53:24.440Z</time>
      </trkpt>
      <trkpt lat="48.54321" lon="2.08118">
        <ele>142.791882</ele>
        <time>2026-01-11T14:53:38.992Z</time>
      </trkpt>
      <trkpt lat="48.54333" lon="2.08101">
        <ele>142.575793</ele>
        <time>2026-01-11T14:53:57.692Z</time>
      </trkpt>
      <trkpt lat="48.54379" lon="2.08094">
        <ele>141.982663</ele>
        <time>2026-01-11T14:54:44.683Z</time>
      </trkpt>
      <trkpt lat="48.54388" lon="2.08097">
        <ele>141.864902</ele>
        <time>2026-01-11T14:54:54.050Z</time>
      </trkpt>
      <trkpt lat="48.5429" lon="2.07984">
        <ele>133.936038</ele>
        <time>2026-01-11T14:57:18.273Z</time>
      </trkpt>
      <trkpt lat="48.54257" lon="2.07984">
        <ele>130.028669</ele>
        <time>2026-01-11T14:57:59.452Z</time>
      </trkpt>
      <trkpt lat="48.54236" lon="2.0797">
        <ele>127.293556</ele>
        <time>2026-01-11T14:58:28.517Z</time>
      </trkpt>
      <trkpt lat="48.54218" lon="2.0795">
        <ele>124.603191</ele>
        <time>2026-01-11T14:58:57.062Z</time>
      </trkpt>
      <trkpt lat="48.54185" lon="2.07891">
        <ele>118.296421</ele>
        <time>2026-01-11T15:00:02.851Z</time>
      </trkpt>
      <trkpt lat="48.54169" lon="2.07878">
        <ele>115.806494</ele>
        <time>2026-01-11T15:00:25.796Z</time>
      </trkpt>
      <trkpt lat="48.54125" lon="2.07897">
        <ele>109.54286</ele>
        <time>2026-01-11T15:01:22.917Z</time>
      </trkpt>
      <trkpt lat="48.54105" lon="2.07906">
        <ele>106.651838</ele>
        <time>2026-01-11T15:01:49.687Z</time>
      </trkpt>
      <trkpt lat="48.54071" lon="2.07912">
        <ele>102.005083</ele>
        <time>2026-01-11T15:02:33.133Z</time>
      </trkpt>
      <trkpt lat="48.54032" lon="2.07883">
        <ele>95.931867</ele>
        <time>2026-01-11T15:03:29.713Z</time>
      </trkpt>
      <trkpt lat="48.54007" lon="2.07879">
        <ele>94.768815</ele>
        <time>2026-01-11T15:04:00.599Z</time>
      </trkpt>
      <trkpt lat="48.53993" lon="2.07887">
        <ele>94.768815</ele>
        <time>2026-01-11T15:04:19.502Z</time>
      </trkpt>
      <trkpt lat="48.53934" lon="2.07943">
        <ele>94.768815</ele>
        <time>2026-01-11T15:05:41.620Z</time>
      </trkpt>
      <trkpt lat="48.53931" lon="2.07939">
        <ele>94.768815</ele>
        <time>2026-01-11T15:05:46.354Z</time>
      </trkpt>
      <trkpt lat="48.53924" lon="2.07942">
        <ele>94.768815</ele>
        <time>2026-01-11T15:05:53.982Z</time>
      </trkpt>
      <trkpt lat="48.53923" lon="2.07952">
        <ele>94.768815</ele>
        <time>2026-01-11T15:06:01.567Z</time>
      </trkpt>
      <trkpt lat="48.53893" lon="2.07975">
        <ele>94.768815</ele>
        <time>2026-01-11T15:06:38.253Z</time>
      </trkpt>
      <trkpt lat="48.53885" lon="2.07981">
        <ele>94.768815</ele>
        <time>2026-01-11T15:06:47.607Z</time>
      </trkpt>
      <trkpt lat="48.53876" lon="2.07987">
        <ele>94.768815</ele>
        <time>2026-01-11T15:06:57.855Z</time>
      </trkpt>
      <trkpt lat="48.53863" lon="2.07959">
        <ele>94.768815</ele>
        <time>2026-01-11T15:07:20.760Z</time>
      </trkpt>
      <trkpt lat="48.53866" lon="2.07945">
        <ele>94.768815</ele>
        <time>2026-01-11T15:07:30.899Z</time>
      </trkpt>
      <trkpt lat="48.53871" lon="2.0794">
        <ele>94.768815</ele>
        <time>2026-01-11T15:07:36.765Z</time>
      </trkpt>
      <trkpt lat="48.5388" lon="2.07932">
        <ele>94.768815</ele>
        <time>2026-01-11T15:07:47.186Z</time>
      </trkpt>
    </trkseg>
  </trk>
</gpx>